الصفحة الرئيسية
METAR-TAF:

METAR-TAF

مطار :

كيش, إيران

دائرة عرض: 26-31-36N, خط طول: 053-58-54E, ارتفاع: 30 متر

مراقبة الطقس الحالي

تاريخ ووقت الإصدار 12 دقيقة قبل الساعة 06:00UTC
رياح هادئة
درجة الحرارة 34°درجة مئوية
الرطوبة 67%
ضغط 1005 hPa
الرؤية: 3000 متر
العجاج

METAR: OIBK 010600Z 00000KT 3000 HZ NSC 34/27 Q1005 NOSIG

زمن: 10:42 (06:12 UTC)

توقعات

تاريخ ووقت الإصدار 42 دقيقة قبل الساعة 05:30UTC
التوقعات صالحة من01 الساعة 06 UTC إلى 02 الساعة 12 UTC
ريح 6 عقدة من الجنوب
الرؤية: 4000 متر
العجاج
أصبح
من 01 الساعة 18 UTC إلى 01 الساعة 20 UTC
الرؤية: 2500 متر
نظرية الاحتمالات 40%
من 01 الساعة 22 UTC إلى 02 الساعة 03 UTC
الرؤية: 1000 متر
غشاء
أصبح
من 02 الساعة 04 UTC إلى 02 الساعة 06 UTC
الرؤية: 4000 متر
العجاج

TAF: OIBK 010530Z 0106/0212 17006KT 4000 HZ NSC BECMG 0118/0120 2500 BR/HZ PROB40 0122/0203 1000 BR BECMG 0204/0206 4000 HZ NSC

أرصاد الطقس والتوقعات من أكثر من 4000 مطار (تقارير الطقس للمطار METAR والتنبؤ بالطقس بالمطارTAF).

المحطات المتاحة هي النقط الصفراء والحمراء على الخريطة.

حرك المؤشر فوق النقطة لمعرفة اسم المحطة.

ثم انقر لمعرفة أرصاد وتوقعات الطقس.

لتغيير الخارطة: اضغط على الأزرار الخضراء مع رمز الصليب الأسود للتكبير. على الزر الأخضر مع شرطة للتصغير، أو على الأسهم الخضراء للخرائط المجاورة.


METAR-TAF: